sensor_id;sensor_type;location;lat;lon;timestamp;temperature;humidity
16503;DHT22;53067;48.114;11.694;2023-04-06T00:01:08;2.50;64.20
16503;DHT22;53067;48.114;11.694;2023-04-06T00:03:36;2.50;64.30
16503;DHT22;53067;48.114;11.694;2023-04-06T00:06:04;2.50;64.30
16503;DHT22;53067;48.114;11.694;2023-04-06T00:08:32;2.50;64.60
16503;DHT22;53067;48.114;11.694;2023-04-06T00:10:59;2.40;64.50
16503;DHT22;53067;48.114;11.694;2023-04-06T00:13:33;2.40;65.00
16503;DHT22;53067;48.114;11.694;2023-04-06T00:16:00;2.30;64.70
16503;DHT22;53067;48.114;11.694;2023-04-06T00:18:28;2.30;65.10
16503;DHT22;53067;48.114;11.694;2023-04-06T00:20:55;2.30;65.40
16503;DHT22;53067;48.114;11.694;2023-04-06T00:23:23;2.20;65.50
16503;DHT22;53067;48.114;11.694;2023-04-06T00:25:51;2.20;65.50
16503;DHT22;53067;48.114;11.694;2023-04-06T00:28:18;2.20;65.50
16503;DHT22;53067;48.114;11.694;2023-04-06T00:30:47;2.10;65.80
16503;DHT22;53067;48.114;11.694;2023-04-06T00:33:15;2.10;66.00
16503;DHT22;53067;48.114;11.694;2023-04-06T00:35:42;2.10;66.20
16503;DHT22;53067;48.114;11.694;2023-04-06T00:38:10;2.10;66.30
16503;DHT22;53067;48.114;11.694;2023-04-06T00:40:38;2.10;66.20
16503;DHT22;53067;48.114;11.694;2023-04-06T00:43:07;2.10;66.30
16503;DHT22;53067;48.114;11.694;2023-04-06T00:45:41;2.10;66.20
16503;DHT22;53067;48.114;11.694;2023-04-06T00:48:09;2.10;66.30
16503;DHT22;53067;48.114;11.694;2023-04-06T00:50:36;2.00;66.10
16503;DHT22;53067;48.114;11.694;2023-04-06T00:53:04;2.00;66.20
16503;DHT22;53067;48.114;11.694;2023-04-06T00:55:31;2.00;66.50
16503;DHT22;53067;48.114;11.694;2023-04-06T00:57:59;2.00;66.30
16503;DHT22;53067;48.114;11.694;2023-04-06T01:00:27;2.00;66.00
16503;DHT22;53067;48.114;11.694;2023-04-06T01:02:55;2.10;66.20
16503;DHT22;53067;48.114;11.694;2023-04-06T01:05:22;2.00;66.10
16503;DHT22;53067;48.114;11.694;2023-04-06T01:07:50;2.10;66.20
16503;DHT22;53067;48.114;11.694;2023-04-06T01:10:25;2.00;66.30
16503;DHT22;53067;48.114;11.694;2023-04-06T01:12:52;2.00;66.70
16503;DHT22;53067;48.114;11.694;2023-04-06T01:15:20;1.90;66.80
16503;DHT22;53067;48.114;11.694;2023-04-06T01:17:48;1.90;66.70
16503;DHT22;53067;48.114;11.694;2023-04-06T01:20:15;1.90;66.80
16503;DHT22;53067;48.114;11.694;2023-04-06T01:22:43;1.90;67.00
16503;DHT22;53067;48.114;11.694;2023-04-06T01:25:11;1.80;66.90
16503;DHT22;53067;48.114;11.694;2023-04-06T01:27:38;1.80;67.20
16503;DHT22;53067;48.114;11.694;2023-04-06T01:30:07;1.80;67.30
16503;DHT22;53067;48.114;11.694;2023-04-06T01:32:34;1.80;67.10
16503;DHT22;53067;48.114;11.694;2023-04-06T01:35:02;1.80;67.10
16503;DHT22;53067;48.114;11.694;2023-04-06T01:37:30;1.70;67.00
16503;DHT22;53067;48.114;11.694;2023-04-06T01:39:59;1.80;67.10
16503;DHT22;53067;48.114;11.694;2023-04-06T01:42:27;1.70;67.30
16503;DHT22;53067;48.114;11.694;2023-04-06T01:44:54;1.70;67.40
16503;DHT22;53067;48.114;11.694;2023-04-06T01:47:22;1.70;67.50
16503;DHT22;53067;48.114;11.694;2023-04-06T01:49:49;1.70;67.50
16503;DHT22;53067;48.114;11.694;2023-04-06T01:52:17;1.70;67.70
16503;DHT22;53067;48.114;11.694;2023-04-06T01:54:45;1.60;67.30
16503;DHT22;53067;48.114;11.694;2023-04-06T01:57:12;1.60;66.80
16503;DHT22;53067;48.114;11.694;2023-04-06T01:59:40;1.70;67.30
16503;DHT22;53067;48.114;11.694;2023-04-06T02:02:07;1.60;67.30
16503;DHT22;53067;48.114;11.694;2023-04-06T02:04:34;1.60;67.30
16503;DHT22;53067;48.114;11.694;2023-04-06T02:07:02;1.60;67.50
16503;DHT22;53067;48.114;11.694;2023-04-06T02:09:30;1.60;67.50
16503;DHT22;53067;48.114;11.694;2023-04-06T02:11:57;1.60;67.30
16503;DHT22;53067;48.114;11.694;2023-04-06T02:14:26;1.60;67.60
16503;DHT22;53067;48.114;11.694;2023-04-06T02:16:53;1.50;67.80
16503;DHT22;53067;48.114;11.694;2023-04-06T02:19:21;1.50;67.80
16503;DHT22;53067;48.114;11.694;2023-04-06T02:21:49;1.50;68.10
16503;DHT22;53067;48.114;11.694;2023-04-06T02:24:16;1.50;68.00
16503;DHT22;53067;48.114;11.694;2023-04-06T02:26:44;1.50;68.20
16503;DHT22;53067;48.114;11.694;2023-04-06T02:29:11;1.40;68.00
16503;DHT22;53067;48.114;11.694;2023-04-06T02:31:39;1.40;68.10
16503;DHT22;53067;48.114;11.694;2023-04-06T02:34:06;1.40;68.00
16503;DHT22;53067;48.114;11.694;2023-04-06T02:36:36;1.40;67.90
16503;DHT22;53067;48.114;11.694;2023-04-06T02:39:03;1.40;68.10
16503;DHT22;53067;48.114;11.694;2023-04-06T02:41:31;1.40;68.20
16503;DHT22;53067;48.114;11.694;2023-04-06T02:43:58;1.40;68.40
16503;DHT22;53067;48.114;11.694;2023-04-06T02:46:26;1.40;68.10
16503;DHT22;53067;48.114;11.694;2023-04-06T02:48:53;1.40;68.10
16503;DHT22;53067;48.114;11.694;2023-04-06T02:51:21;1.30;68.10
16503;DHT22;53067;48.114;11.694;2023-04-06T02:53:48;1.30;68.10
16503;DHT22;53067;48.114;11.694;2023-04-06T02:56:16;1.30;68.20
16503;DHT22;53067;48.114;11.694;2023-04-06T02:58:44;1.30;68.10
16503;DHT22;53067;48.114;11.694;2023-04-06T03:01:11;1.30;68.10
16503;DHT22;53067;48.114;11.694;2023-04-06T03:03:39;1.30;68.20
16503;DHT22;53067;48.114;11.694;2023-04-06T03:06:06;1.30;68.20
16503;DHT22;53067;48.114;11.694;2023-04-06T03:08:34;1.30;68.20
16503;DHT22;53067;48.114;11.694;2023-04-06T03:11:02;1.20;68.40
16503;DHT22;53067;48.114;11.694;2023-04-06T03:13:29;1.30;68.50
16503;DHT22;53067;48.114;11.694;2023-04-06T03:15:57;1.30;68.60
16503;DHT22;53067;48.114;11.694;2023-04-06T03:18:25;1.20;68.60
16503;DHT22;53067;48.114;11.694;2023-04-06T03:20:52;1.20;68.60
16503;DHT22;53067;48.114;11.694;2023-04-06T03:23:23;1.20;68.60
16503;DHT22;53067;48.114;11.694;2023-04-06T03:25:50;1.20;68.70
16503;DHT22;53067;48.114;11.694;2023-04-06T03:28:18;1.20;68.90
16503;DHT22;53067;48.114;11.694;2023-04-06T03:30:46;1.20;69.10
16503;DHT22;53067;48.114;11.694;2023-04-06T03:33:13;1.20;68.90
16503;DHT22;53067;48.114;11.694;2023-04-06T03:35:41;1.20;68.90
16503;DHT22;53067;48.114;11.694;2023-04-06T03:38:08;1.10;68.90
16503;DHT22;53067;48.114;11.694;2023-04-06T03:40:36;1.10;69.00
16503;DHT22;53067;48.114;11.694;2023-04-06T03:43:04;1.10;69.10
16503;DHT22;53067;48.114;11.694;2023-04-06T03:45:32;1.10;69.10
16503;DHT22;53067;48.114;11.694;2023-04-06T03:47:59;1.10;69.10
16503;DHT22;53067;48.114;11.694;2023-04-06T03:50:27;1.10;69.10
16503;DHT22;53067;48.114;11.694;2023-04-06T03:52:54;1.10;69.20
16503;DHT22;53067;48.114;11.694;2023-04-06T03:55:22;1.10;69.20
16503;DHT22;53067;48.114;11.694;2023-04-06T03:57:50;1.00;69.30
16503;DHT22;53067;48.114;11.694;2023-04-06T04:00:18;1.00;69.60
16503;DHT22;53067;48.114;11.694;2023-04-06T04:02:45;1.00;69.80
16503;DHT22;53067;48.114;11.694;2023-04-06T04:05:13;1.00;69.70
16503;DHT22;53067;48.114;11.694;2023-04-06T04:07:40;0.90;70.10
16503;DHT22;53067;48.114;11.694;2023-04-06T04:10:08;0.90;70.30
16503;DHT22;53067;48.114;11.694;2023-04-06T04:12:36;0.90;70.20
16503;DHT22;53067;48.114;11.694;2023-04-06T04:15:05;0.90;70.00
16503;DHT22;53067;48.114;11.694;2023-04-06T04:17:32;1.00;69.80
16503;DHT22;53067;48.114;11.694;2023-04-06T04:20:00;1.00;69.50
16503;DHT22;53067;48.114;11.694;2023-04-06T04:22:27;1.10;69.50
16503;DHT22;53067;48.114;11.694;2023-04-06T04:24:55;1.10;70.20
16503;DHT22;53067;48.114;11.694;2023-04-06T04:27:22;1.10;69.40
16503;DHT22;53067;48.114;11.694;2023-04-06T04:29:50;1.10;69.40
16503;DHT22;53067;48.114;11.694;2023-04-06T04:32:17;1.00;69.50
16503;DHT22;53067;48.114;11.694;2023-04-06T04:34:45;1.00;69.80
16503;DHT22;53067;48.114;11.694;2023-04-06T04:37:12;1.00;69.90
16503;DHT22;53067;48.114;11.694;2023-04-06T04:39:40;1.00;69.90
16503;DHT22;53067;48.114;11.694;2023-04-06T04:42:07;1.00;69.80
16503;DHT22;53067;48.114;11.694;2023-04-06T04:44:35;1.00;69.80
16503;DHT22;53067;48.114;11.694;2023-04-06T04:47:02;1.00;69.90
16503;DHT22;53067;48.114;11.694;2023-04-06T04:49:30;1.00;70.00
16503;DHT22;53067;48.114;11.694;2023-04-06T04:51:57;1.00;70.00
16503;DHT22;53067;48.114;11.694;2023-04-06T04:54:25;1.00;70.00
16503;DHT22;53067;48.114;11.694;2023-04-06T04:56:52;1.00;69.80
16503;DHT22;53067;48.114;11.694;2023-04-06T04:59:20;1.10;69.70
16503;DHT22;53067;48.114;11.694;2023-04-06T05:01:47;1.10;69.80
16503;DHT22;53067;48.114;11.694;2023-04-06T05:04:15;1.10;70.50
16503;DHT22;53067;48.114;11.694;2023-04-06T05:06:42;1.10;69.80
16503;DHT22;53067;48.114;11.694;2023-04-06T05:09:10;1.10;70.00
16503;DHT22;53067;48.114;11.694;2023-04-06T05:11:38;1.10;70.00
16503;DHT22;53067;48.114;11.694;2023-04-06T05:14:05;1.00;70.10
16503;DHT22;53067;48.114;11.694;2023-04-06T05:16:34;1.00;70.30
16503;DHT22;53067;48.114;11.694;2023-04-06T05:19:01;1.10;70.40
16503;DHT22;53067;48.114;11.694;2023-04-06T05:21:29;1.10;70.20
16503;DHT22;53067;48.114;11.694;2023-04-06T05:23:58;1.10;70.20
16503;DHT22;53067;48.114;11.694;2023-04-06T05:26:25;1.10;70.40
16503;DHT22;53067;48.114;11.694;2023-04-06T05:28:53;1.10;70.40
16503;DHT22;53067;48.114;11.694;2023-04-06T05:31:21;1.20;70.50
16503;DHT22;53067;48.114;11.694;2023-04-06T05:33:48;1.20;70.40
16503;DHT22;53067;48.114;11.694;2023-04-06T05:36:16;1.30;71.20
16503;DHT22;53067;48.114;11.694;2023-04-06T05:38:44;1.30;70.70
16503;DHT22;53067;48.114;11.694;2023-04-06T05:41:12;1.30;70.60
16503;DHT22;53067;48.114;11.694;2023-04-06T05:43:39;1.40;70.50
16503;DHT22;53067;48.114;11.694;2023-04-06T05:46:07;1.50;70.30
16503;DHT22;53067;48.114;11.694;2023-04-06T05:48:34;1.60;70.30
16503;DHT22;53067;48.114;11.694;2023-04-06T05:51:02;1.50;70.00
16503;DHT22;53067;48.114;11.694;2023-04-06T05:53:31;1.70;69.90
16503;DHT22;53067;48.114;11.694;2023-04-06T05:56:03;1.80;69.50
16503;DHT22;53067;48.114;11.694;2023-04-06T05:58:30;1.80;69.10
16503;DHT22;53067;48.114;11.694;2023-04-06T06:00:59;1.90;69.00
16503;DHT22;53067;48.114;11.694;2023-04-06T06:03:27;2.00;68.80
16503;DHT22;53067;48.114;11.694;2023-04-06T06:06:00;2.10;68.70
16503;DHT22;53067;48.114;11.694;2023-04-06T06:08:28;2.10;68.40
16503;DHT22;53067;48.114;11.694;2023-04-06T06:10:56;2.20;68.10
16503;DHT22;53067;48.114;11.694;2023-04-06T06:13:24;2.30;67.80
16503;DHT22;53067;48.114;11.694;2023-04-06T06:15:51;2.40;67.70
16503;DHT22;53067;48.114;11.694;2023-04-06T06:18:19;2.50;68.20
16503;DHT22;53067;48.114;11.694;2023-04-06T06:20:46;2.60;67.40
16503;DHT22;53067;48.114;11.694;2023-04-06T06:23:14;2.60;67.10
16503;DHT22;53067;48.114;11.694;2023-04-06T06:25:41;2.70;67.30
16503;DHT22;53067;48.114;11.694;2023-04-06T06:28:09;2.80;66.50
16503;DHT22;53067;48.114;11.694;2023-04-06T06:30:36;2.80;66.40
16503;DHT22;53067;48.114;11.694;2023-04-06T06:33:04;2.90;66.50
16503;DHT22;53067;48.114;11.694;2023-04-06T06:35:31;3.00;66.60
16503;DHT22;53067;48.114;11.694;2023-04-06T06:37:59;3.10;66.50
16503;DHT22;53067;48.114;11.694;2023-04-06T06:40:26;3.10;66.20
16503;DHT22;53067;48.114;11.694;2023-04-06T06:42:54;3.20;65.70
16503;DHT22;53067;48.114;11.694;2023-04-06T06:45:22;3.20;65.50
16503;DHT22;53067;48.114;11.694;2023-04-06T06:47:52;3.30;65.30
16503;DHT22;53067;48.114;11.694;2023-04-06T06:50:20;3.40;65.30
16503;DHT22;53067;48.114;11.694;2023-04-06T06:52:47;3.40;65.20
16503;DHT22;53067;48.114;11.694;2023-04-06T06:55:15;3.50;64.60
16503;DHT22;53067;48.114;11.694;2023-04-06T06:57:44;3.60;64.30
16503;DHT22;53067;48.114;11.694;2023-04-06T07:00:13;3.70;64.30
16503;DHT22;53067;48.114;11.694;2023-04-06T07:02:41;3.80;63.90
16503;DHT22;53067;48.114;11.694;2023-04-06T07:05:09;3.90;63.20
16503;DHT22;53067;48.114;11.694;2023-04-06T07:07:36;4.00;63.00
16503;DHT22;53067;48.114;11.694;2023-04-06T07:10:06;4.20;63.20
16503;DHT22;53067;48.114;11.694;2023-04-06T07:12:34;4.30;62.90
16503;DHT22;53067;48.114;11.694;2023-04-06T07:15:01;4.40;62.70
16503;DHT22;53067;48.114;11.694;2023-04-06T07:17:29;4.60;62.50
16503;DHT22;53067;48.114;11.694;2023-04-06T07:19:57;4.60;61.20
16503;DHT22;53067;48.114;11.694;2023-04-06T07:22:24;4.70;60.70
16503;DHT22;53067;48.114;11.694;2023-04-06T07:24:52;4.80;60.70
16503;DHT22;53067;48.114;11.694;2023-04-06T07:27:19;4.90;60.30
16503;DHT22;53067;48.114;11.694;2023-04-06T07:29:47;5.10;59.80
16503;DHT22;53067;48.114;11.694;2023-04-06T07:32:14;5.20;59.30
16503;DHT22;53067;48.114;11.694;2023-04-06T07:34:42;5.30;59.20
16503;DHT22;53067;48.114;11.694;2023-04-06T07:37:11;5.50;58.30
16503;DHT22;53067;48.114;11.694;2023-04-06T07:39:38;5.60;57.60
16503;DHT22;53067;48.114;11.694;2023-04-06T07:42:07;5.80;57.20
16503;DHT22;53067;48.114;11.694;2023-04-06T07:44:34;5.90;56.40
16503;DHT22;53067;48.114;11.694;2023-04-06T07:47:02;6.10;55.00
16503;DHT22;53067;48.114;11.694;2023-04-06T07:49:29;6.20;54.30
16503;DHT22;53067;48.114;11.694;2023-04-06T07:51:58;6.30;54.40
16503;DHT22;53067;48.114;11.694;2023-04-06T07:54:27;6.50;54.20
16503;DHT22;53067;48.114;11.694;2023-04-06T07:56:54;6.60;54.80
16503;DHT22;53067;48.114;11.694;2023-04-06T07:59:22;6.80;54.50
16503;DHT22;53067;48.114;11.694;2023-04-06T08:01:49;6.80;52.30
16503;DHT22;53067;48.114;11.694;2023-04-06T08:04:17;6.90;52.00
16503;DHT22;53067;48.114;11.694;2023-04-06T08:06:44;7.00;51.70
16503;DHT22;53067;48.114;11.694;2023-04-06T08:09:12;7.10;51.90
16503;DHT22;53067;48.114;11.694;2023-04-06T08:11:39;7.20;52.10
16503;DHT22;53067;48.114;11.694;2023-04-06T08:14:07;7.30;51.80
16503;DHT22;53067;48.114;11.694;2023-04-06T08:16:34;7.40;51.80
16503;DHT22;53067;48.114;11.694;2023-04-06T08:19:02;7.50;51.20
16503;DHT22;53067;48.114;11.694;2023-04-06T08:21:30;7.60;50.80
16503;DHT22;53067;48.114;11.694;2023-04-06T08:23:58;7.70;50.40
16503;DHT22;53067;48.114;11.694;2023-04-06T08:26:27;7.80;48.90
16503;DHT22;53067;48.114;11.694;2023-04-06T08:28:55;7.90;49.00
16503;DHT22;53067;48.114;11.694;2023-04-06T08:31:22;8.00;49.10
16503;DHT22;53067;48.114;11.694;2023-04-06T08:33:50;8.20;48.10
16503;DHT22;53067;48.114;11.694;2023-04-06T08:36:18;8.30;48.20
16503;DHT22;53067;48.114;11.694;2023-04-06T08:38:47;8.40;47.10
16503;DHT22;53067;48.114;11.694;2023-04-06T08:41:16;8.50;46.90
16503;DHT22;53067;48.114;11.694;2023-04-06T08:43:49;8.60;46.60
16503;DHT22;53067;48.114;11.694;2023-04-06T08:46:18;8.70;45.90
16503;DHT22;53067;48.114;11.694;2023-04-06T08:48:45;8.80;45.00
16503;DHT22;53067;48.114;11.694;2023-04-06T08:51:16;8.90;44.90
16503;DHT22;53067;48.114;11.694;2023-04-06T08:53:45;9.00;45.00
16503;DHT22;53067;48.114;11.694;2023-04-06T08:56:13;9.20;44.40
16503;DHT22;53067;48.114;11.694;2023-04-06T08:58:42;9.30;44.60
16503;DHT22;53067;48.114;11.694;2023-04-06T09:01:11;9.40;44.20
16503;DHT22;53067;48.114;11.694;2023-04-06T09:03:40;9.50;42.70
16503;DHT22;53067;48.114;11.694;2023-04-06T09:06:08;9.70;42.40
16503;DHT22;53067;48.114;11.694;2023-04-06T09:08:38;9.80;41.70
16503;DHT22;53067;48.114;11.694;2023-04-06T09:11:07;10.00;41.90
16503;DHT22;53067;48.114;11.694;2023-04-06T09:13:49;10.20;41.90
16503;DHT22;53067;48.114;11.694;2023-04-06T09:16:26;10.40;41.40
16503;DHT22;53067;48.114;11.694;2023-04-06T09:19:03;10.50;41.30
16503;DHT22;53067;48.114;11.694;2023-04-06T09:21:27;10.50;40.60
16503;DHT22;53067;48.114;11.694;2023-04-06T09:26:59;10.70;40.40
16503;DHT22;53067;48.114;11.694;2023-04-06T09:29:27;10.80;39.70
16503;DHT22;53067;48.114;11.694;2023-04-06T09:32:06;10.70;40.30
16503;DHT22;53067;48.114;11.694;2023-04-06T09:34:34;10.80;40.10
16503;DHT22;53067;48.114;11.694;2023-04-06T09:37:13;10.90;40.80
16503;DHT22;53067;48.114;11.694;2023-04-06T09:39:41;10.90;40.10
16503;DHT22;53067;48.114;11.694;2023-04-06T09:42:08;11.00;39.30
16503;DHT22;53067;48.114;11.694;2023-04-06T09:44:36;11.10;39.20
16503;DHT22;53067;48.114;11.694;2023-04-06T09:47:06;11.10;38.90
16503;DHT22;53067;48.114;11.694;2023-04-06T09:49:34;11.20;40.30
16503;DHT22;53067;48.114;11.694;2023-04-06T09:54:51;11.20;38.70
16503;DHT22;53067;48.114;11.694;2023-04-06T09:57:32;11.20;38.90
16503;DHT22;53067;48.114;11.694;2023-04-06T10:00:07;11.20;38.60
16503;DHT22;53067;48.114;11.694;2023-04-06T10:02:58;11.20;36.40
16503;DHT22;53067;48.114;11.694;2023-04-06T10:05:38;10.90;36.90
16503;DHT22;53067;48.114;11.694;2023-04-06T10:08:13;11.00;39.70
16503;DHT22;53067;48.114;11.694;2023-04-06T10:10:37;11.10;39.80
16503;DHT22;53067;48.114;11.694;2023-04-06T10:13:05;11.30;39.20
16503;DHT22;53067;48.114;11.694;2023-04-06T10:15:33;11.40;38.00
16503;DHT22;53067;48.114;11.694;2023-04-06T10:18:02;11.50;37.40
16503;DHT22;53067;48.114;11.694;2023-04-06T10:20:47;11.40;37.30
16503;DHT22;53067;48.114;11.694;2023-04-06T10:23:17;11.60;37.70
16503;DHT22;53067;48.114;11.694;2023-04-06T10:26:04;11.70;37.90
16503;DHT22;53067;48.114;11.694;2023-04-06T10:28:33;11.70;36.60
16503;DHT22;53067;48.114;11.694;2023-04-06T10:31:06;11.50;35.70
16503;DHT22;53067;48.114;11.694;2023-04-06T10:33:34;11.50;35.40
16503;DHT22;53067;48.114;11.694;2023-04-06T10:36:22;11.30;35.90
16503;DHT22;53067;48.114;11.694;2023-04-06T10:38:55;11.40;36.40
16503;DHT22;53067;48.114;11.694;2023-04-06T10:41:24;11.40;36.40
16503;DHT22;53067;48.114;11.694;2023-04-06T10:43:57;11.40;36.50
16503;DHT22;53067;48.114;11.694;2023-04-06T10:46:29;11.30;35.80
16503;DHT22;53067;48.114;11.694;2023-04-06T10:48:58;11.40;36.00
16503;DHT22;53067;48.114;11.694;2023-04-06T10:51:28;11.40;36.40
16503;DHT22;53067;48.114;11.694;2023-04-06T10:53:55;11.50;36.30
16503;DHT22;53067;48.114;11.694;2023-04-06T10:56:24;11.50;35.80
16503;DHT22;53067;48.114;11.694;2023-04-06T10:58:54;11.40;35.90
16503;DHT22;53067;48.114;11.694;2023-04-06T11:01:24;11.40;35.70
16503;DHT22;53067;48.114;11.694;2023-04-06T11:03:56;11.40;34.90
16503;DHT22;53067;48.114;11.694;2023-04-06T11:06:29;11.40;35.40
16503;DHT22;53067;48.114;11.694;2023-04-06T11:08:58;11.50;35.70
16503;DHT22;53067;48.114;11.694;2023-04-06T11:11:26;11.80;35.80
16503;DHT22;53067;48.114;11.694;2023-04-06T11:13:58;11.90;35.90
16503;DHT22;53067;48.114;11.694;2023-04-06T11:16:32;12.20;35.30
16503;DHT22;53067;48.114;11.694;2023-04-06T11:19:01;12.60;35.70
16503;DHT22;53067;48.114;11.694;2023-04-06T11:21:46;12.90;33.90
16503;DHT22;53067;48.114;11.694;2023-04-06T11:24:23;13.20;34.00
16503;DHT22;53067;48.114;11.694;2023-04-06T11:26:55;13.30;32.60
16503;DHT22;53067;48.114;11.694;2023-04-06T11:29:25;13.30;31.90
16503;DHT22;53067;48.114;11.694;2023-04-06T11:32:01;13.20;31.50
16503;DHT22;53067;48.114;11.694;2023-04-06T11:34:30;13.10;31.60
16503;DHT22;53067;48.114;11.694;2023-04-06T11:37:07;13.00;31.40
16503;DHT22;53067;48.114;11.694;2023-04-06T11:39:37;13.00;32.70
16503;DHT22;53067;48.114;11.694;2023-04-06T11:42:02;13.10;31.80
16503;DHT22;53067;48.114;11.694;2023-04-06T11:44:34;13.10;30.90
16503;DHT22;53067;48.114;11.694;2023-04-06T11:47:03;13.10;31.80
16503;DHT22;53067;48.114;11.694;2023-04-06T11:49:32;12.80;31.40
16503;DHT22;53067;48.114;11.694;2023-04-06T11:52:01;12.80;32.10
16503;DHT22;53067;48.114;11.694;2023-04-06T11:54:54;12.90;33.10
16503;DHT22;53067;48.114;11.694;2023-04-06T11:57:24;13.20;33.00
16503;DHT22;53067;48.114;11.694;2023-04-06T11:59:52;13.50;31.80
16503;DHT22;53067;48.114;11.694;2023-04-06T12:02:20;13.70;32.80
16503;DHT22;53067;48.114;11.694;2023-04-06T12:04:47;13.90;32.60
16503;DHT22;53067;48.114;11.694;2023-04-06T12:07:15;14.20;33.20
16503;DHT22;53067;48.114;11.694;2023-04-06T12:09:43;14.40;31.40
16503;DHT22;53067;48.114;11.694;2023-04-06T12:12:10;14.40;31.20
16503;DHT22;53067;48.114;11.694;2023-04-06T12:14:38;14.20;30.00
16503;DHT22;53067;48.114;11.694;2023-04-06T12:17:05;13.90;29.80
16503;DHT22;53067;48.114;11.694;2023-04-06T12:19:33;13.80;31.30
16503;DHT22;53067;48.114;11.694;2023-04-06T12:22:00;13.80;30.90
16503;DHT22;53067;48.114;11.694;2023-04-06T12:24:29;14.10;31.10
16503;DHT22;53067;48.114;11.694;2023-04-06T12:26:57;14.70;30.90
16503;DHT22;53067;48.114;11.694;2023-04-06T12:29:25;15.70;30.10
16503;DHT22;53067;48.114;11.694;2023-04-06T12:31:52;16.30;29.20
16503;DHT22;53067;48.114;11.694;2023-04-06T12:34:20;16.40;28.70
16503;DHT22;53067;48.114;11.694;2023-04-06T12:36:47;16.30;28.00
16503;DHT22;53067;48.114;11.694;2023-04-06T12:39:16;16.30;28.70
16503;DHT22;53067;48.114;11.694;2023-04-06T12:41:44;16.10;28.90
16503;DHT22;53067;48.114;11.694;2023-04-06T12:44:12;16.10;29.30
16503;DHT22;53067;48.114;11.694;2023-04-06T12:46:39;16.00;29.70
16503;DHT22;53067;48.114;11.694;2023-04-06T12:49:09;15.90;29.70
16503;DHT22;53067;48.114;11.694;2023-04-06T12:51:36;15.70;29.70
16503;DHT22;53067;48.114;11.694;2023-04-06T12:54:04;15.90;30.00
16503;DHT22;53067;48.114;11.694;2023-04-06T12:56:32;16.20;29.50
16503;DHT22;53067;48.114;11.694;2023-04-06T12:59:00;16.20;28.70
16503;DHT22;53067;48.114;11.694;2023-04-06T13:01:27;16.10;28.80
16503;DHT22;53067;48.114;11.694;2023-04-06T13:04:01;16.30;28.10
16503;DHT22;53067;48.114;11.694;2023-04-06T13:06:32;16.60;27.00
16503;DHT22;53067;48.114;11.694;2023-04-06T13:08:59;16.90;27.00
16503;DHT22;53067;48.114;11.694;2023-04-06T13:11:27;17.30;27.00
16503;DHT22;53067;48.114;11.694;2023-04-06T13:13:54;17.50;26.50
16503;DHT22;53067;48.114;11.694;2023-04-06T13:16:22;17.20;25.20
16503;DHT22;53067;48.114;11.694;2023-04-06T13:18:49;17.10;25.80
16503;DHT22;53067;48.114;11.694;2023-04-06T13:21:17;16.80;26.00
16503;DHT22;53067;48.114;11.694;2023-04-06T13:23:47;16.60;26.50
16503;DHT22;53067;48.114;11.694;2023-04-06T13:26:14;16.70;26.50
16503;DHT22;53067;48.114;11.694;2023-04-06T13:28:43;16.70;26.10
16503;DHT22;53067;48.114;11.694;2023-04-06T13:31:10;16.50;27.20
16503;DHT22;53067;48.114;11.694;2023-04-06T13:33:38;16.30;28.40
16503;DHT22;53067;48.114;11.694;2023-04-06T13:36:08;16.00;28.90
16503;DHT22;53067;48.114;11.694;2023-04-06T13:38:35;15.80;29.00
16503;DHT22;53067;48.114;11.694;2023-04-06T13:41:05;15.50;29.10
16503;DHT22;53067;48.114;11.694;2023-04-06T13:43:32;15.20;29.60
16503;DHT22;53067;48.114;11.694;2023-04-06T13:46:00;15.10;29.80
16503;DHT22;53067;48.114;11.694;2023-04-06T13:48:28;14.90;29.80
16503;DHT22;53067;48.114;11.694;2023-04-06T13:51:19;14.70;30.00
16503;DHT22;53067;48.114;11.694;2023-04-06T13:53:47;14.70;30.20
16503;DHT22;53067;48.114;11.694;2023-04-06T13:56:16;14.60;30.10
16503;DHT22;53067;48.114;11.694;2023-04-06T13:58:43;14.50;30.10
16503;DHT22;53067;48.114;11.694;2023-04-06T14:01:11;14.40;30.00
16503;DHT22;53067;48.114;11.694;2023-04-06T14:03:40;14.30;30.60
16503;DHT22;53067;48.114;11.694;2023-04-06T14:06:12;14.30;31.10
16503;DHT22;53067;48.114;11.694;2023-04-06T14:08:40;14.40;31.20
16503;DHT22;53067;48.114;11.694;2023-04-06T14:11:12;14.50;30.10
16503;DHT22;53067;48.114;11.694;2023-04-06T14:13:40;14.50;30.70
16503;DHT22;53067;48.114;11.694;2023-04-06T14:16:08;14.50;30.00
16503;DHT22;53067;48.114;11.694;2023-04-06T14:18:36;14.50;29.80
16503;DHT22;53067;48.114;11.694;2023-04-06T14:21:04;14.40;29.70
16503;DHT22;53067;48.114;11.694;2023-04-06T14:23:32;14.30;29.50
16503;DHT22;53067;48.114;11.694;2023-04-06T14:26:04;14.40;30.00
16503;DHT22;53067;48.114;11.694;2023-04-06T14:28:33;14.20;29.90
16503;DHT22;53067;48.114;11.694;2023-04-06T14:31:09;13.90;29.70
16503;DHT22;53067;48.114;11.694;2023-04-06T14:33:32;13.90;30.50
16503;DHT22;53067;48.114;11.694;2023-04-06T14:36:04;14.00;30.60
16503;DHT22;53067;48.114;11.694;2023-04-06T14:38:32;13.90;31.30
16503;DHT22;53067;48.114;11.694;2023-04-06T14:41:00;13.90;31.60
16503;DHT22;53067;48.114;11.694;2023-04-06T14:43:28;13.90;31.30
16503;DHT22;53067;48.114;11.694;2023-04-06T14:46:07;14.00;32.30
16503;DHT22;53067;48.114;11.694;2023-04-06T14:48:35;14.00;31.00
16503;DHT22;53067;48.114;11.694;2023-04-06T14:51:03;14.00;31.60
16503;DHT22;53067;48.114;11.694;2023-04-06T14:53:30;14.00;31.80
16503;DHT22;53067;48.114;11.694;2023-04-06T14:55:58;14.00;32.40
16503;DHT22;53067;48.114;11.694;2023-04-06T14:58:26;14.10;31.60
16503;DHT22;53067;48.114;11.694;2023-04-06T15:00:58;14.20;30.20
16503;DHT22;53067;48.114;11.694;2023-04-06T15:03:27;14.20;30.50
16503;DHT22;53067;48.114;11.694;2023-04-06T15:05:58;14.10;30.40
16503;DHT22;53067;48.114;11.694;2023-04-06T15:08:26;14.10;31.50
16503;DHT22;53067;48.114;11.694;2023-04-06T15:10:53;14.20;31.40
16503;DHT22;53067;48.114;11.694;2023-04-06T15:13:22;14.30;30.40
16503;DHT22;53067;48.114;11.694;2023-04-06T15:15:51;14.40;30.20
16503;DHT22;53067;48.114;11.694;2023-04-06T15:18:19;14.40;30.70
16503;DHT22;53067;48.114;11.694;2023-04-06T15:20:47;14.40;29.80
16503;DHT22;53067;48.114;11.694;2023-04-06T15:23:15;14.30;29.80
16503;DHT22;53067;48.114;11.694;2023-04-06T15:25:42;14.20;29.30
16503;DHT22;53067;48.114;11.694;2023-04-06T15:28:10;14.00;29.30
16503;DHT22;53067;48.114;11.694;2023-04-06T15:30:37;13.80;29.90
16503;DHT22;53067;48.114;11.694;2023-04-06T15:33:07;13.60;30.00
16503;DHT22;53067;48.114;11.694;2023-04-06T15:35:35;13.50;29.90
16503;DHT22;53067;48.114;11.694;2023-04-06T15:38:07;13.30;30.20
16503;DHT22;53067;48.114;11.694;2023-04-06T15:40:45;13.20;30.10